Doagh, United Kingdom
Current Conditions -  °F | °C
As of 3:50 PM on Sunday 21 Dec 2014 (Local Time) from EGAA Reporting Station
Light Rain Light Rain  
Wind Chill: 52°   Ceiling: 700
Heat Index: 52°   Visibility: 4mi
Dew Point: 50°   Wind: 17mph
Humidity: 94%   Direction: 230°SW
Pressure: 29.85"   Gusts: NA
Location:  54.75°N, 6.08°W
Report Text: EGAA 211550Z 23015KT 7000 -RADZ BKN007 BKN011 11/10 Q1011
Loading
Personal Weather Stations






























Interactive Weather Map New forecast layout! Learn more

10-Day Weather Forecast

Advertisements
Track Severe Weather on mobile